sensor_id;sensor_type;location;lat;lon;timestamp;P1;durP1;ratioP1;P2;durP2;ratioP2
42186;SDS011;27858;51.414;0.018;2023-04-01T00:01:15;8.15;;;4.68;;
42186;SDS011;27858;51.414;0.018;2023-04-01T00:03:42;8.00;;;5.85;;
42186;SDS011;27858;51.414;0.018;2023-04-01T00:06:14;7.65;;;5.07;;
42186;SDS011;27858;51.414;0.018;2023-04-01T00:08:42;9.38;;;4.82;;
42186;SDS011;27858;51.414;0.018;2023-04-01T00:11:10;7.13;;;4.95;;
42186;SDS011;27858;51.414;0.018;2023-04-01T00:13:37;10.10;;;5.85;;
42186;SDS011;27858;51.414;0.018;2023-04-01T00:16:04;10.35;;;5.70;;
42186;SDS011;27858;51.414;0.018;2023-04-01T00:18:46;9.32;;;5.30;;
42186;SDS011;27858;51.414;0.018;2023-04-01T00:21:13;6.88;;;4.18;;
42186;SDS011;27858;51.414;0.018;2023-04-01T00:23:41;8.48;;;4.97;;
42186;SDS011;27858;51.414;0.018;2023-04-01T00:26:08;9.98;;;7.25;;
42186;SDS011;27858;51.414;0.018;2023-04-01T00:28:38;6.70;;;4.00;;
42186;SDS011;27858;51.414;0.018;2023-04-01T00:31:05;10.38;;;5.47;;
42186;SDS011;27858;51.414;0.018;2023-04-01T00:33:33;6.38;;;4.70;;
42186;SDS011;27858;51.414;0.018;2023-04-01T00:36:33;7.90;;;4.50;;
42186;SDS011;27858;51.414;0.018;2023-04-01T00:38:53;10.48;;;4.57;;
42186;SDS011;27858;51.414;0.018;2023-04-01T00:41:19;7.95;;;5.20;;
42186;SDS011;27858;51.414;0.018;2023-04-01T00:43:48;7.38;;;4.68;;
42186;SDS011;27858;51.414;0.018;2023-04-01T00:46:16;9.20;;;5.13;;
42186;SDS011;27858;51.414;0.018;2023-04-01T00:48:50;8.00;;;3.97;;
42186;SDS011;27858;51.414;0.018;2023-04-01T00:51:23;6.63;;;4.90;;
42186;SDS011;27858;51.414;0.018;2023-04-01T00:53:53;9.40;;;4.40;;
42186;SDS011;27858;51.414;0.018;2023-04-01T00:56:22;6.60;;;3.80;;
42186;SDS011;27858;51.414;0.018;2023-04-01T00:58:58;6.68;;;4.35;;
42186;SDS011;27858;51.414;0.018;2023-04-01T01:01:27;5.20;;;3.88;;
42186;SDS011;27858;51.414;0.018;2023-04-01T01:03:56;6.95;;;4.78;;
42186;SDS011;27858;51.414;0.018;2023-04-01T01:15:53;5.53;;;4.10;;
42186;SDS011;27858;51.414;0.018;2023-04-01T01:23:43;6.80;;;3.95;;
42186;SDS011;27858;51.414;0.018;2023-04-01T01:31:50;6.93;;;3.85;;
42186;SDS011;27858;51.414;0.018;2023-04-01T01:37:20;3.85;;;2.63;;
42186;SDS011;27858;51.414;0.018;2023-04-01T01:39:54;3.33;;;2.20;;
42186;SDS011;27858;51.414;0.018;2023-04-01T01:42:25;4.00;;;1.95;;
42186;SDS011;27858;51.414;0.018;2023-04-01T01:44:53;3.17;;;1.73;;
42186;SDS011;27858;51.414;0.018;2023-04-01T01:47:23;2.95;;;2.15;;
42186;SDS011;27858;51.414;0.018;2023-04-01T01:49:51;1.95;;;1.50;;
42186;SDS011;27858;51.414;0.018;2023-04-01T01:52:21;1.50;;;1.25;;
42186;SDS011;27858;51.414;0.018;2023-04-01T01:54:50;2.17;;;1.58;;
42186;SDS011;27858;51.414;0.018;2023-04-01T01:57:34;2.00;;;1.70;;
42186;SDS011;27858;51.414;0.018;2023-04-01T02:00:08;2.30;;;1.52;;
42186;SDS011;27858;51.414;0.018;2023-04-01T02:02:43;2.45;;;1.55;;
42186;SDS011;27858;51.414;0.018;2023-04-01T02:07:43;4.45;;;2.30;;
42186;SDS011;27858;51.414;0.018;2023-04-01T02:10:15;3.55;;;1.63;;
42186;SDS011;27858;51.414;0.018;2023-04-01T02:12:43;2.67;;;1.98;;
42186;SDS011;27858;51.414;0.018;2023-04-01T02:15:14;3.97;;;1.73;;
42186;SDS011;27858;51.414;0.018;2023-04-01T02:17:43;2.33;;;1.90;;
42186;SDS011;27858;51.414;0.018;2023-04-01T02:20:30;5.88;;;2.58;;
42186;SDS011;27858;51.414;0.018;2023-04-01T02:22:57;2.72;;;1.48;;
42186;SDS011;27858;51.414;0.018;2023-04-01T02:25:29;2.58;;;1.40;;
42186;SDS011;27858;51.414;0.018;2023-04-01T02:28:00;1.50;;;1.23;;
42186;SDS011;27858;51.414;0.018;2023-04-01T02:30:29;4.90;;;1.38;;
42186;SDS011;27858;51.414;0.018;2023-04-01T02:33:00;1.30;;;1.20;;
42186;SDS011;27858;51.414;0.018;2023-04-01T02:35:28;2.95;;;1.45;;
42186;SDS011;27858;51.414;0.018;2023-04-01T02:37:55;2.55;;;1.33;;
42186;SDS011;27858;51.414;0.018;2023-04-01T02:40:22;3.30;;;1.30;;
42186;SDS011;27858;51.414;0.018;2023-04-01T02:42:49;2.75;;;1.42;;
42186;SDS011;27858;51.414;0.018;2023-04-01T02:45:16;2.20;;;1.48;;
42186;SDS011;27858;51.414;0.018;2023-04-01T02:47:43;2.38;;;1.38;;
42186;SDS011;27858;51.414;0.018;2023-04-01T02:50:10;1.73;;;1.60;;
42186;SDS011;27858;51.414;0.018;2023-04-01T02:52:37;1.73;;;1.15;;
42186;SDS011;27858;51.414;0.018;2023-04-01T02:55:05;1.23;;;0.85;;
42186;SDS011;27858;51.414;0.018;2023-04-01T02:57:33;2.20;;;1.50;;
42186;SDS011;27858;51.414;0.018;2023-04-01T02:59:59;1.30;;;1.20;;
42186;SDS011;27858;51.414;0.018;2023-04-01T03:02:26;1.67;;;1.33;;
42186;SDS011;27858;51.414;0.018;2023-04-01T03:04:53;1.38;;;0.95;;
42186;SDS011;27858;51.414;0.018;2023-04-01T03:07:20;1.02;;;0.95;;
42186;SDS011;27858;51.414;0.018;2023-04-01T03:09:46;1.90;;;1.45;;
42186;SDS011;27858;51.414;0.018;2023-04-01T03:12:13;2.10;;;1.25;;
42186;SDS011;27858;51.414;0.018;2023-04-01T03:14:40;1.35;;;1.20;;
42186;SDS011;27858;51.414;0.018;2023-04-01T03:17:07;3.03;;;1.15;;
42186;SDS011;27858;51.414;0.018;2023-04-01T03:19:33;1.80;;;1.15;;
42186;SDS011;27858;51.414;0.018;2023-04-01T03:22:00;1.35;;;0.82;;
42186;SDS011;27858;51.414;0.018;2023-04-01T03:24:27;2.00;;;1.15;;
42186;SDS011;27858;51.414;0.018;2023-04-01T03:26:54;1.52;;;0.90;;
42186;SDS011;27858;51.414;0.018;2023-04-01T03:29:20;2.22;;;1.10;;
42186;SDS011;27858;51.414;0.018;2023-04-01T03:31:47;0.95;;;0.80;;
42186;SDS011;27858;51.414;0.018;2023-04-01T03:34:14;1.52;;;1.10;;
42186;SDS011;27858;51.414;0.018;2023-04-01T03:36:40;2.45;;;0.93;;
42186;SDS011;27858;51.414;0.018;2023-04-01T03:39:07;1.90;;;1.13;;
42186;SDS011;27858;51.414;0.018;2023-04-01T03:41:35;1.23;;;0.60;;
42186;SDS011;27858;51.414;0.018;2023-04-01T03:44:04;1.25;;;0.98;;
42186;SDS011;27858;51.414;0.018;2023-04-01T03:46:31;1.25;;;0.93;;
42186;SDS011;27858;51.414;0.018;2023-04-01T03:48:58;1.48;;;1.00;;
42186;SDS011;27858;51.414;0.018;2023-04-01T03:51:24;1.50;;;1.13;;
42186;SDS011;27858;51.414;0.018;2023-04-01T03:53:51;1.38;;;1.05;;
42186;SDS011;27858;51.414;0.018;2023-04-01T03:56:18;2.08;;;1.08;;
42186;SDS011;27858;51.414;0.018;2023-04-01T03:58:45;2.17;;;1.30;;
42186;SDS011;27858;51.414;0.018;2023-04-01T04:01:16;1.15;;;0.93;;
42186;SDS011;27858;51.414;0.018;2023-04-01T04:03:44;1.10;;;0.90;;
42186;SDS011;27858;51.414;0.018;2023-04-01T04:06:12;1.80;;;1.30;;
42186;SDS011;27858;51.414;0.018;2023-04-01T04:08:39;3.75;;;1.10;;
42186;SDS011;27858;51.414;0.018;2023-04-01T04:11:06;1.48;;;1.05;;
42186;SDS011;27858;51.414;0.018;2023-04-01T04:13:33;0.90;;;0.77;;
42186;SDS011;27858;51.414;0.018;2023-04-01T04:16:02;1.58;;;0.95;;
42186;SDS011;27858;51.414;0.018;2023-04-01T04:18:29;2.03;;;1.05;;
42186;SDS011;27858;51.414;0.018;2023-04-01T04:20:56;0.60;;;0.60;;
42186;SDS011;27858;51.414;0.018;2023-04-01T04:23:23;1.85;;;1.20;;
42186;SDS011;27858;51.414;0.018;2023-04-01T04:25:54;1.00;;;0.90;;
42186;SDS011;27858;51.414;0.018;2023-04-01T04:28:26;0.68;;;0.68;;
42186;SDS011;27858;51.414;0.018;2023-04-01T04:30:54;0.70;;;0.65;;
42186;SDS011;27858;51.414;0.018;2023-04-01T04:33:22;2.40;;;1.20;;
42186;SDS011;27858;51.414;0.018;2023-04-01T04:35:49;1.63;;;0.90;;
42186;SDS011;27858;51.414;0.018;2023-04-01T04:38:17;0.70;;;0.70;;
42186;SDS011;27858;51.414;0.018;2023-04-01T04:40:44;0.98;;;0.70;;
42186;SDS011;27858;51.414;0.018;2023-04-01T04:43:11;1.77;;;0.80;;
42186;SDS011;27858;51.414;0.018;2023-04-01T04:45:40;1.75;;;0.60;;
42186;SDS011;27858;51.414;0.018;2023-04-01T04:48:08;0.77;;;0.77;;
42186;SDS011;27858;51.414;0.018;2023-04-01T04:50:36;0.80;;;0.75;;
42186;SDS011;27858;51.414;0.018;2023-04-01T04:53:02;1.35;;;0.70;;
42186;SDS011;27858;51.414;0.018;2023-04-01T04:55:29;1.35;;;0.80;;
42186;SDS011;27858;51.414;0.018;2023-04-01T04:57:57;1.75;;;0.65;;
42186;SDS011;27858;51.414;0.018;2023-04-01T05:00:23;1.35;;;1.23;;
42186;SDS011;27858;51.414;0.018;2023-04-01T05:02:50;1.88;;;1.42;;
42186;SDS011;27858;51.414;0.018;2023-04-01T05:05:17;1.10;;;0.73;;
42186;SDS011;27858;51.414;0.018;2023-04-01T05:07:43;1.42;;;0.80;;
42186;SDS011;27858;51.414;0.018;2023-04-01T05:10:10;1.27;;;0.80;;
42186;SDS011;27858;51.414;0.018;2023-04-01T05:12:37;1.25;;;1.13;;
42186;SDS011;27858;51.414;0.018;2023-04-01T05:15:05;1.40;;;0.77;;
42186;SDS011;27858;51.414;0.018;2023-04-01T05:17:32;1.27;;;1.00;;
42186;SDS011;27858;51.414;0.018;2023-04-01T05:19:59;1.58;;;1.33;;
42186;SDS011;27858;51.414;0.018;2023-04-01T05:22:26;1.00;;;0.85;;
42186;SDS011;27858;51.414;0.018;2023-04-01T05:24:53;1.77;;;1.08;;
42186;SDS011;27858;51.414;0.018;2023-04-01T05:27:20;1.60;;;0.90;;
42186;SDS011;27858;51.414;0.018;2023-04-01T05:29:47;1.45;;;1.25;;
42186;SDS011;27858;51.414;0.018;2023-04-01T05:32:13;4.28;;;1.60;;
42186;SDS011;27858;51.414;0.018;2023-04-01T05:34:41;1.30;;;1.20;;
42186;SDS011;27858;51.414;0.018;2023-04-01T05:37:07;1.10;;;0.80;;
42186;SDS011;27858;51.414;0.018;2023-04-01T05:39:38;1.13;;;0.90;;
42186;SDS011;27858;51.414;0.018;2023-04-01T05:42:05;1.23;;;1.08;;
42186;SDS011;27858;51.414;0.018;2023-04-01T05:44:34;1.08;;;0.93;;
42186;SDS011;27858;51.414;0.018;2023-04-01T05:47:01;0.73;;;0.60;;
42186;SDS011;27858;51.414;0.018;2023-04-01T05:49:29;1.23;;;1.08;;
42186;SDS011;27858;51.414;0.018;2023-04-01T05:51:56;1.58;;;1.10;;
42186;SDS011;27858;51.414;0.018;2023-04-01T05:54:23;1.77;;;1.55;;
42186;SDS011;27858;51.414;0.018;2023-04-01T05:56:50;3.00;;;1.30;;
42186;SDS011;27858;51.414;0.018;2023-04-01T05:59:16;2.70;;;1.65;;
42186;SDS011;27858;51.414;0.018;2023-04-01T06:01:43;3.15;;;1.00;;
42186;SDS011;27858;51.414;0.018;2023-04-01T06:04:13;3.45;;;0.93;;
42186;SDS011;27858;51.414;0.018;2023-04-01T06:06:42;1.35;;;1.25;;
42186;SDS011;27858;51.414;0.018;2023-04-01T06:09:14;2.00;;;1.35;;
42186;SDS011;27858;51.414;0.018;2023-04-01T06:14:34;3.63;;;1.77;;
42186;SDS011;27858;51.414;0.018;2023-04-01T06:40:00;1.10;;;0.98;;
42186;SDS011;27858;51.414;0.018;2023-04-01T06:45:15;2.05;;;1.60;;
42186;SDS011;27858;51.414;0.018;2023-04-01T06:56:37;3.65;;;1.63;;
42186;SDS011;27858;51.414;0.018;2023-04-01T06:59:17;2.58;;;1.48;;
42186;SDS011;27858;51.414;0.018;2023-04-01T07:01:59;3.90;;;1.75;;
42186;SDS011;27858;51.414;0.018;2023-04-01T07:04:37;2.20;;;1.65;;
42186;SDS011;27858;51.414;0.018;2023-04-01T07:10:05;3.17;;;2.47;;
42186;SDS011;27858;51.414;0.018;2023-04-01T07:12:43;2.15;;;1.35;;
42186;SDS011;27858;51.414;0.018;2023-04-01T07:15:15;3.05;;;1.98;;
42186;SDS011;27858;51.414;0.018;2023-04-01T07:18:16;2.17;;;1.55;;
42186;SDS011;27858;51.414;0.018;2023-04-01T07:20:54;3.88;;;1.90;;
42186;SDS011;27858;51.414;0.018;2023-04-01T07:23:23;2.95;;;1.98;;
42186;SDS011;27858;51.414;0.018;2023-04-01T07:26:01;3.20;;;1.50;;
42186;SDS011;27858;51.414;0.018;2023-04-01T07:28:40;6.75;;;2.47;;
42186;SDS011;27858;51.414;0.018;2023-04-01T07:36:40;3.95;;;1.95;;
42186;SDS011;27858;51.414;0.018;2023-04-01T07:42:08;3.33;;;2.60;;
42186;SDS011;27858;51.414;0.018;2023-04-01T07:47:39;4.10;;;1.92;;
42186;SDS011;27858;51.414;0.018;2023-04-01T07:53:07;2.95;;;2.20;;
42186;SDS011;27858;51.414;0.018;2023-04-01T07:55:59;4.68;;;1.67;;
42186;SDS011;27858;51.414;0.018;2023-04-01T08:10:31;4.85;;;2.75;;
42186;SDS011;27858;51.414;0.018;2023-04-01T08:13:06;3.45;;;2.47;;
42186;SDS011;27858;51.414;0.018;2023-04-01T08:20:59;5.50;;;3.45;;
42186;SDS011;27858;51.414;0.018;2023-04-01T08:23:38;6.45;;;3.15;;
42186;SDS011;27858;51.414;0.018;2023-04-01T08:29:12;6.18;;;3.67;;
42186;SDS011;27858;51.414;0.018;2023-04-01T08:34:21;8.15;;;3.83;;
42186;SDS011;27858;51.414;0.018;2023-04-01T08:37:15;5.28;;;2.67;;
42186;SDS011;27858;51.414;0.018;2023-04-01T08:39:51;3.35;;;2.20;;
42186;SDS011;27858;51.414;0.018;2023-04-01T08:45:16;3.13;;;1.97;;
42186;SDS011;27858;51.414;0.018;2023-04-01T08:47:56;3.75;;;2.00;;
42186;SDS011;27858;51.414;0.018;2023-04-01T08:56:18;4.18;;;2.30;;
42186;SDS011;27858;51.414;0.018;2023-04-01T08:59:19;3.88;;;2.67;;
42186;SDS011;27858;51.414;0.018;2023-04-01T09:21:08;3.25;;;2.05;;
42186;SDS011;27858;51.414;0.018;2023-04-01T09:34:54;5.30;;;2.08;;
42186;SDS011;27858;51.414;0.018;2023-04-01T09:37:31;3.15;;;1.92;;
42186;SDS011;27858;51.414;0.018;2023-04-01T09:40:21;5.68;;;2.00;;
42186;SDS011;27858;51.414;0.018;2023-04-01T09:43:06;2.05;;;1.42;;
42186;SDS011;27858;51.414;0.018;2023-04-01T10:20:46;1.77;;;1.35;;
42186;SDS011;27858;51.414;0.018;2023-04-01T10:23:21;1.30;;;1.08;;
42186;SDS011;27858;51.414;0.018;2023-04-01T10:25:57;1.63;;;1.10;;
42186;SDS011;27858;51.414;0.018;2023-04-01T10:28:51;1.73;;;1.38;;
42186;SDS011;27858;51.414;0.018;2023-04-01T10:41:57;2.38;;;0.80;;
42186;SDS011;27858;51.414;0.018;2023-04-01T11:07:55;2.90;;;1.77;;
42186;SDS011;27858;51.414;0.018;2023-04-01T11:16:23;4.20;;;2.17;;
42186;SDS011;27858;51.414;0.018;2023-04-01T11:33:47;3.20;;;2.13;;
42186;SDS011;27858;51.414;0.018;2023-04-01T11:36:46;3.80;;;2.30;;
42186;SDS011;27858;51.414;0.018;2023-04-01T11:39:43;8.65;;;2.95;;
42186;SDS011;27858;51.414;0.018;2023-04-01T11:42:16;5.55;;;2.50;;
42186;SDS011;27858;51.414;0.018;2023-04-01T11:47:51;6.70;;;3.22;;
42186;SDS011;27858;51.414;0.018;2023-04-01T11:50:38;7.35;;;3.30;;
42186;SDS011;27858;51.414;0.018;2023-04-01T11:53:37;5.25;;;2.58;;
42186;SDS011;27858;51.414;0.018;2023-04-01T12:05:15;7.68;;;2.45;;
42186;SDS011;27858;51.414;0.018;2023-04-01T12:18:53;6.18;;;2.83;;
42186;SDS011;27858;51.414;0.018;2023-04-01T12:34:54;4.20;;;1.73;;
42186;SDS011;27858;51.414;0.018;2023-04-01T12:48:32;6.82;;;1.40;;
42186;SDS011;27858;51.414;0.018;2023-04-01T13:00:12;5.07;;;2.38;;
42186;SDS011;27858;51.414;0.018;2023-04-01T13:08:48;4.93;;;1.75;;
42186;SDS011;27858;51.414;0.018;2023-04-01T13:26:33;2.25;;;1.10;;
42186;SDS011;27858;51.414;0.018;2023-04-01T13:31:38;3.72;;;1.52;;
42186;SDS011;27858;51.414;0.018;2023-04-01T13:42:16;1.55;;;0.90;;
42186;SDS011;27858;51.414;0.018;2023-04-01T14:01:04;2.33;;;0.90;;
42186;SDS011;27858;51.414;0.018;2023-04-01T14:03:50;3.65;;;1.30;;
42186;SDS011;27858;51.414;0.018;2023-04-01T14:14:39;4.70;;;1.23;;
42186;SDS011;27858;51.414;0.018;2023-04-01T14:20:13;1.42;;;0.65;;
42186;SDS011;27858;51.414;0.018;2023-04-01T14:31:29;2.78;;;1.65;;
42186;SDS011;27858;51.414;0.018;2023-04-01T14:42:38;4.95;;;1.77;;
42186;SDS011;27858;51.414;0.018;2023-04-01T14:48:17;1.40;;;0.95;;
42186;SDS011;27858;51.414;0.018;2023-04-01T14:50:52;2.42;;;1.58;;
42186;SDS011;27858;51.414;0.018;2023-04-01T14:53:26;3.15;;;1.50;;
42186;SDS011;27858;51.414;0.018;2023-04-01T14:55:55;2.20;;;1.38;;
42186;SDS011;27858;51.414;0.018;2023-04-01T14:58:26;3.65;;;2.05;;
42186;SDS011;27858;51.414;0.018;2023-04-01T15:04:24;3.03;;;1.83;;
42186;SDS011;27858;51.414;0.018;2023-04-01T15:07:10;1.83;;;1.27;;
42186;SDS011;27858;51.414;0.018;2023-04-01T15:17:58;2.58;;;1.42;;
42186;SDS011;27858;51.414;0.018;2023-04-01T15:20:33;6.55;;;2.08;;
42186;SDS011;27858;51.414;0.018;2023-04-01T15:29:18;3.85;;;1.85;;
42186;SDS011;27858;51.414;0.018;2023-04-01T15:34:58;2.50;;;1.58;;
42186;SDS011;27858;51.414;0.018;2023-04-01T15:49:11;1.52;;;1.25;;
42186;SDS011;27858;51.414;0.018;2023-04-01T15:52:18;4.22;;;2.10;;
42186;SDS011;27858;51.414;0.018;2023-04-01T16:06:23;5.07;;;2.47;;
42186;SDS011;27858;51.414;0.018;2023-04-01T16:09:02;2.75;;;1.88;;
42186;SDS011;27858;51.414;0.018;2023-04-01T16:11:42;5.25;;;2.90;;
42186;SDS011;27858;51.414;0.018;2023-04-01T16:16:51;3.90;;;2.72;;
42186;SDS011;27858;51.414;0.018;2023-04-01T16:19:22;6.28;;;2.55;;
42186;SDS011;27858;51.414;0.018;2023-04-01T16:27:53;3.53;;;2.05;;
42186;SDS011;27858;51.414;0.018;2023-04-01T16:38:47;2.80;;;1.90;;
42186;SDS011;27858;51.414;0.018;2023-04-01T16:41:30;6.00;;;2.42;;
42186;SDS011;27858;51.414;0.018;2023-04-01T16:46:50;4.22;;;2.58;;
42186;SDS011;27858;51.414;0.018;2023-04-01T16:51:59;3.17;;;2.17;;
42186;SDS011;27858;51.414;0.018;2023-04-01T16:54:45;4.43;;;2.70;;
42186;SDS011;27858;51.414;0.018;2023-04-01T16:57:28;6.60;;;2.85;;
42186;SDS011;27858;51.414;0.018;2023-04-01T17:02:43;5.38;;;3.15;;
42186;SDS011;27858;51.414;0.018;2023-04-01T17:05:18;4.25;;;2.72;;
42186;SDS011;27858;51.414;0.018;2023-04-01T17:24:27;4.60;;;1.90;;
42186;SDS011;27858;51.414;0.018;2023-04-01T17:30:11;2.60;;;1.60;;
42186;SDS011;27858;51.414;0.018;2023-04-01T17:35:30;2.63;;;1.85;;
42186;SDS011;27858;51.414;0.018;2023-04-01T17:41:06;3.83;;;1.77;;
42186;SDS011;27858;51.414;0.018;2023-04-01T17:43:41;4.30;;;1.90;;
42186;SDS011;27858;51.414;0.018;2023-04-01T18:02:42;4.30;;;2.60;;
42186;SDS011;27858;51.414;0.018;2023-04-01T18:14:53;2.00;;;1.65;;
42186;SDS011;27858;51.414;0.018;2023-04-01T18:17:51;3.20;;;1.92;;
42186;SDS011;27858;51.414;0.018;2023-04-01T18:20:28;3.95;;;1.88;;
42186;SDS011;27858;51.414;0.018;2023-04-01T18:26:08;3.30;;;1.77;;
42186;SDS011;27858;51.414;0.018;2023-04-01T18:31:10;1.88;;;1.70;;
42186;SDS011;27858;51.414;0.018;2023-04-01T18:36:21;2.33;;;1.60;;
42186;SDS011;27858;51.414;0.018;2023-04-01T18:39:10;2.63;;;1.95;;
42186;SDS011;27858;51.414;0.018;2023-04-01T18:41:50;3.60;;;1.90;;
42186;SDS011;27858;51.414;0.018;2023-04-01T18:44:41;2.85;;;1.30;;
42186;SDS011;27858;51.414;0.018;2023-04-01T18:50:47;3.42;;;2.33;;
42186;SDS011;27858;51.414;0.018;2023-04-01T18:53:19;2.47;;;1.60;;
42186;SDS011;27858;51.414;0.018;2023-04-01T18:55:59;11.48;;;2.13;;
42186;SDS011;27858;51.414;0.018;2023-04-01T18:58:35;1.63;;;1.15;;
42186;SDS011;27858;51.414;0.018;2023-04-01T19:01:12;2.42;;;1.50;;
42186;SDS011;27858;51.414;0.018;2023-04-01T19:20:08;2.75;;;1.23;;
42186;SDS011;27858;51.414;0.018;2023-04-01T19:25:54;1.20;;;1.00;;
42186;SDS011;27858;51.414;0.018;2023-04-01T19:28:29;1.70;;;1.60;;
42186;SDS011;27858;51.414;0.018;2023-04-01T19:30:58;3.63;;;1.25;;
42186;SDS011;27858;51.414;0.018;2023-04-01T19:36:45;2.92;;;2.00;;
42186;SDS011;27858;51.414;0.018;2023-04-01T19:48:21;3.05;;;1.20;;
42186;SDS011;27858;51.414;0.018;2023-04-01T19:59:40;4.93;;;1.77;;
42186;SDS011;27858;51.414;0.018;2023-04-01T20:04:59;1.92;;;0.90;;
42186;SDS011;27858;51.414;0.018;2023-04-01T20:07:52;1.63;;;1.48;;
42186;SDS011;27858;51.414;0.018;2023-04-01T20:13:28;2.25;;;1.20;;
42186;SDS011;27858;51.414;0.018;2023-04-01T20:16:12;4.88;;;1.92;;
42186;SDS011;27858;51.414;0.018;2023-04-01T20:18:45;2.65;;;1.27;;
42186;SDS011;27858;51.414;0.018;2023-04-01T20:21:33;3.42;;;1.52;;
42186;SDS011;27858;51.414;0.018;2023-04-01T20:26:40;6.68;;;1.60;;
42186;SDS011;27858;51.414;0.018;2023-04-01T20:31:42;2.15;;;0.68;;
42186;SDS011;27858;51.414;0.018;2023-04-01T20:34:17;1.67;;;1.15;;
42186;SDS011;27858;51.414;0.018;2023-04-01T20:47:44;3.60;;;1.98;;
42186;SDS011;27858;51.414;0.018;2023-04-01T20:50:26;2.67;;;2.08;;
42186;SDS011;27858;51.414;0.018;2023-04-01T20:52:58;1.67;;;1.25;;
42186;SDS011;27858;51.414;0.018;2023-04-01T21:01:11;4.47;;;1.20;;
42186;SDS011;27858;51.414;0.018;2023-04-01T21:05:00;1.50;;;0.90;;
42186;SDS011;27858;51.414;0.018;2023-04-01T21:09:47;2.90;;;0.80;;
42186;SDS011;27858;51.414;0.018;2023-04-01T21:18:04;2.33;;;1.40;;
42186;SDS011;27858;51.414;0.018;2023-04-01T21:20:40;1.67;;;0.68;;
42186;SDS011;27858;51.414;0.018;2023-04-01T21:34:08;0.80;;;0.60;;
42186;SDS011;27858;51.414;0.018;2023-04-01T21:39:42;1.73;;;0.82;;
42186;SDS011;27858;51.414;0.018;2023-04-01T21:42:50;0.75;;;0.70;;
42186;SDS011;27858;51.414;0.018;2023-04-01T22:06:14;3.70;;;1.58;;
42186;SDS011;27858;51.414;0.018;2023-04-01T22:16:57;1.23;;;0.75;;
42186;SDS011;27858;51.414;0.018;2023-04-01T22:19:39;2.70;;;0.93;;
42186;SDS011;27858;51.414;0.018;2023-04-01T22:25:45;0.90;;;0.80;;
42186;SDS011;27858;51.414;0.018;2023-04-01T22:28:16;3.83;;;0.95;;
42186;SDS011;27858;51.414;0.018;2023-04-01T22:30:53;3.00;;;1.20;;
42186;SDS011;27858;51.414;0.018;2023-04-01T22:33:29;1.17;;;0.70;;
42186;SDS011;27858;51.414;0.018;2023-04-01T22:36:13;1.65;;;0.73;;
42186;SDS011;27858;51.414;0.018;2023-04-01T22:38:55;2.38;;;1.02;;
42186;SDS011;27858;51.414;0.018;2023-04-01T22:41:32;1.33;;;0.70;;
42186;SDS011;27858;51.414;0.018;2023-04-01T22:47:20;0.75;;;0.60;;
42186;SDS011;27858;51.414;0.018;2023-04-01T22:49:59;1.67;;;1.20;;
42186;SDS011;27858;51.414;0.018;2023-04-01T22:52:38;0.80;;;0.70;;
42186;SDS011;27858;51.414;0.018;2023-04-01T22:55:51;1.50;;;0.68;;
42186;SDS011;27858;51.414;0.018;2023-04-01T22:58:03;0.90;;;0.70;;
42186;SDS011;27858;51.414;0.018;2023-04-01T23:00:43;1.20;;;0.40;;
42186;SDS011;27858;51.414;0.018;2023-04-01T23:03:17;1.20;;;0.60;;
42186;SDS011;27858;51.414;0.018;2023-04-01T23:05:51;1.70;;;0.57;;
42186;SDS011;27858;51.414;0.018;2023-04-01T23:11:27;1.50;;;0.75;;
42186;SDS011;27858;51.414;0.018;2023-04-01T23:19:34;0.60;;;0.50;;
42186;SDS011;27858;51.414;0.018;2023-04-01T23:24:53;1.67;;;0.50;;
42186;SDS011;27858;51.414;0.018;2023-04-01T23:27:39;0.70;;;0.70;;
42186;SDS011;27858;51.414;0.018;2023-04-01T23:33:19;1.45;;;1.08;;
42186;SDS011;27858;51.414;0.018;2023-04-01T23:36:02;1.48;;;0.95;;
42186;SDS011;27858;51.414;0.018;2023-04-01T23:38:39;0.55;;;0.55;;
42186;SDS011;27858;51.414;0.018;2023-04-01T23:41:08;1.63;;;1.10;;
42186;SDS011;27858;51.414;0.018;2023-04-01T23:43:56;2.00;;;0.98;;
42186;SDS011;27858;51.414;0.018;2023-04-01T23:46:26;0.43;;;0.35;;
42186;SDS011;27858;51.414;0.018;2023-04-01T23:48:56;1.33;;;0.60;;
42186;SDS011;27858;51.414;0.018;2023-04-01T23:51:26;1.23;;;0.80;;
42186;SDS011;27858;51.414;0.018;2023-04-01T23:53:57;1.40;;;0.75;;
42186;SDS011;27858;51.414;0.018;2023-04-01T23:56:37;1.38;;;0.60;;
42186;SDS011;27858;51.414;0.018;2023-04-01T23:59:09;0.70;;;0.52;;
